Time;durP1;ratioP1;P1;durP2;ratioP2;P2;SDS_P1;SDS_P2;PMS_P1;PMS_P2;Temp;Humidity;BMP_temperature;BMP_pressure;BME280_temperature;BME280_humidity;BME280_pressure;Samples;Min_cycle;Max_cycle;Signal;HPM_P1;HPM_P2
2022/12/05 00:01:51;;;;;;;85.18;35.63;;;;;;;4.39;100.00;101747.59;4976204;28;20026;-77
2022/12/05 00:04:16;;;;;;;83.70;35.58;;;;;;;4.41;100.00;101744.81;4993925;28;20022;-77
2022/12/05 00:06:42;;;;;;;80.18;35.15;;;;;;;4.36;100.00;101747.78;4976625;28;20077;-77
2022/12/05 00:09:09;;;;;;;75.60;34.40;;;;;;;4.43;100.00;101754.47;4970485;28;20046;-76
2022/12/05 00:11:38;;;;;;;71.40;32.00;;;;;;;4.54;100.00;101752.00;4975854;28;20046;-77
2022/12/05 00:14:05;;;;;;;74.63;33.40;;;;;;;4.54;100.00;101752.00;4969345;28;20019;-77
2022/12/05 00:16:32;;;;;;;70.32;33.42;;;;;;;4.32;100.00;101746.28;4976330;28;20026;-77
2022/12/05 00:19:01;;;;;;;70.00;32.63;;;;;;;4.36;100.00;101739.75;4976515;28;20080;-77
2022/12/05 00:21:29;;;;;;;64.93;30.83;;;;;;;4.50;100.00;101750.47;4975921;28;20105;-77
2022/12/05 00:23:56;;;;;;;67.40;29.88;;;;;;;4.52;100.00;101747.69;5002220;28;20026;-77
2022/12/05 00:26:22;;;;;;;62.45;28.65;;;;;;;4.55;100.00;101742.13;5001733;28;20387;-77
2022/12/05 00:28:48;;;;;;;63.05;31.60;;;;;;;4.49;100.00;101732.63;5002180;28;20029;-77
2022/12/05 00:31:17;;;;;;;59.55;30.35;;;;;;;4.57;100.00;101734.84;4975749;28;20033;-77
2022/12/05 00:33:43;;;;;;;71.43;30.02;;;;;;;4.57;100.00;101734.84;4975823;28;20113;-77
2022/12/05 00:36:14;;;;;;;62.38;30.27;;;;;;;4.35;100.00;101733.53;4976004;28;20177;-77
2022/12/05 00:38:41;;;;;;;65.68;29.30;;;;;;;4.48;100.00;101724.69;4969354;28;20042;-77
2022/12/05 00:41:12;;;;;;;69.30;31.17;;;;;;;4.52;100.00;101727.09;4979766;28;20122;-77
2022/12/05 00:43:38;;;;;;;60.63;29.27;;;;;;;4.48;100.00;101725.56;4975206;28;20038;-76
2022/12/05 00:46:06;;;;;;;63.00;28.50;;;;;;;4.42;100.00;101731.31;4976081;28;20030;-77
2022/12/05 00:48:32;;;;;;;61.00;28.70;;;;;;;4.55;100.00;101726.88;4974902;28;20112;-77
2022/12/05 00:51:27;;;;;;;63.22;29.13;;;;;;;4.61;100.00;101729.19;4976791;28;20081;-77
2022/12/05 00:53:52;;;;;;;66.68;30.40;;;;;;;4.53;100.00;101718.09;4976100;28;20038;-77
2022/12/05 00:56:20;;;;;;;68.55;30.45;;;;;;;4.67;100.00;101713.66;4969728;28;20472;-77
2022/12/05 00:58:46;;;;;;;61.30;28.10;;;;;;;4.76;100.00;101718.41;5001596;28;20026;-77
2022/12/05 01:01:15;;;;;;;67.97;28.15;;;;;;;4.70;100.00;101718.84;4993193;28;20030;-76
2022/12/05 01:03:41;;;;;;;60.80;29.00;;;;;;;4.49;100.00;101721.91;4975169;28;20057;-76
2022/12/05 01:06:07;;;;;;;60.33;28.80;;;;;;;4.71;100.00;101720.56;4975739;28;20089;-76
2022/12/05 01:08:34;;;;;;;64.68;29.40;;;;;;;4.60;100.00;101719.41;4969341;28;20033;-76
2022/12/05 01:11:00;;;;;;;57.47;28.55;;;;;;;4.65;100.00;101726.31;4965431;28;20105;-76
2022/12/05 01:13:27;;;;;;;53.17;26.98;;;;;;;4.58;100.00;101732.06;4975140;28;20018;-76
2022/12/05 01:15:53;;;;;;;57.22;28.10;;;;;;;4.60;100.00;101730.13;4975162;28;20026;-76
2022/12/05 01:18:19;;;;;;;54.03;26.75;;;;;;;4.50;100.00;101729.03;4975632;28;20072;-76
2022/12/05 01:20:46;;;;;;;56.28;25.85;;;;;;;4.72;100.00;101722.28;4975757;28;20470;-76
2022/12/05 01:23:12;;;;;;;55.58;26.27;;;;;;;4.70;100.00;101721.53;4975889;28;20076;-75
2022/12/05 01:25:39;;;;;;;50.08;25.73;;;;;;;4.80;100.00;101726.16;4975345;28;20030;-76
2022/12/05 01:28:05;;;;;;;51.63;26.95;;;;;;;4.78;100.00;101721.88;4976102;28;20031;-76
2022/12/05 01:30:31;;;;;;;52.45;25.27;;;;;;;4.82;100.00;101726.06;4972130;28;20019;-76
2022/12/05 01:32:57;;;;;;;48.55;27.38;;;;;;;4.62;100.00;101728.22;4984592;28;20034;-76
2022/12/05 01:35:22;;;;;;;53.63;26.77;;;;;;;4.86;100.00;101719.53;5012496;28;20037;-76
2022/12/05 01:37:48;;;;;;;49.55;26.25;;;;;;;4.83;100.00;101722.44;4979279;28;20072;-76
2022/12/05 01:40:13;;;;;;;52.38;25.92;;;;;;;4.82;100.00;101707.28;4995858;28;20024;-76
2022/12/05 01:42:39;;;;;;;51.58;27.13;;;;;;;4.78;100.00;101711.13;4996474;28;20030;-76
2022/12/05 01:45:30;;;;;;;55.90;26.40;;;;;;;4.72;100.00;101711.53;4975443;28;20035;-76
2022/12/05 01:47:56;;;;;;;55.08;26.58;;;;;;;4.76;100.00;101702.31;4966926;28;20041;-76
2022/12/05 01:50:21;;;;;;;45.55;25.10;;;;;;;4.71;100.00;101712.50;5001190;28;20113;-76
2022/12/05 01:52:47;;;;;;;49.80;26.23;;;;;;;4.58;100.00;101710.63;4974728;28;20049;-76
2022/12/05 01:55:15;;;;;;;48.95;24.42;;;;;;;4.61;100.00;101704.19;4975121;28;20019;-76
2022/12/05 01:57:40;;;;;;;51.50;27.33;;;;;;;4.65;100.00;101704.84;4999084;28;20029;-76
2022/12/05 02:00:15;;;;;;;52.15;27.05;;;;;;;4.89;100.00;101708.63;4980361;28;20023;-76
2022/12/05 02:02:45;;;;;;;48.40;26.55;;;;;;;4.96;100.00;101704.56;4979391;28;20018;-76
2022/12/05 02:05:19;;;;;;;52.10;25.38;;;;;;;4.92;100.00;101702.19;4979611;28;20038;-76
2022/12/05 02:07:46;;;;;;;51.55;27.38;;;;;;;4.98;100.00;101702.63;4979380;28;20030;-76
2022/12/05 02:10:11;;;;;;;48.53;24.88;;;;;;;4.96;100.00;101704.56;4989105;28;20019;-77
2022/12/05 02:12:37;;;;;;;51.30;27.40;;;;;;;4.83;100.00;101698.28;4974910;28;20033;-77
2022/12/05 02:15:15;;;;;;;48.50;25.30;;;;;;;4.85;100.00;101699.91;4980558;28;20097;-76
2022/12/05 02:18:03;;;;;;;54.03;28.02;;;;;;;4.84;100.00;101694.63;4992551;28;20058;-76
2022/12/05 02:20:43;;;;;;;62.08;28.40;;;;;;;5.00;100.00;101692.66;4979374;28;20023;-76
2022/12/05 02:23:30;;;;;;;50.78;27.08;;;;;;;4.94;100.00;101690.38;4999054;28;20057;-77
2022/12/05 02:26:23;;;;;;;54.38;27.67;;;;;;;4.95;100.00;101686.72;4982733;28;20026;-76
2022/12/05 02:29:10;;;;;;;53.05;27.80;;;;;;;5.02;100.00;101688.06;4983573;28;20022;-76
2022/12/05 02:31:48;;;;;;;55.20;26.60;;;;;;;5.00;100.00;101679.22;4971125;28;20037;-76
2022/12/05 02:34:30;;;;;;;55.35;28.20;;;;;;;5.03;100.00;101679.03;4980347;28;20491;-77
2022/12/05 02:37:07;;;;;;;58.22;28.00;;;;;;;5.07;100.00;101680.53;4979746;28;20033;-77
2022/12/05 02:39:47;;;;;;;56.47;29.85;;;;;;;5.04;100.00;101680.75;4973441;28;20034;-76
2022/12/05 02:42:34;;;;;;;55.80;29.00;;;;;;;4.99;100.00;101666.78;4977929;28;20046;-76
2022/12/05 02:45:11;;;;;;;61.63;30.77;;;;;;;4.96;100.00;101668.81;4978986;28;20040;-76
2022/12/05 02:47:43;;;;;;;62.45;29.10;;;;;;;5.01;100.00;101670.22;4979013;28;20080;-76
2022/12/05 02:50:12;;;;;;;64.75;28.63;;;;;;;5.07;100.00;101663.56;5004559;28;20065;-77
2022/12/05 02:52:39;;;;;;;68.07;31.48;;;;;;;5.06;100.00;101657.34;5004109;28;20086;-76
2022/12/05 02:55:07;;;;;;;66.30;32.05;;;;;;;5.07;100.00;101664.44;4971368;28;20037;-76
2022/12/05 02:57:33;;;;;;;65.45;32.55;;;;;;;4.99;100.00;101661.41;4971098;28;20094;-76
2022/12/05 02:59:59;;;;;;;72.53;34.72;;;;;;;4.92;100.00;101652.06;4979101;28;20043;-76
2022/12/05 03:02:29;;;;;;;74.97;33.30;;;;;;;4.89;100.00;101666.56;4996021;28;20045;-77
2022/12/05 03:05:26;;;;;;;72.53;33.40;;;;;;;5.01;100.00;101662.16;5004150;28;20020;-76
2022/12/05 03:07:56;;;;;;;69.85;35.17;;;;;;;5.23;100.00;101652.69;4957763;28;20039;-77
2022/12/05 03:10:26;;;;;;;69.43;32.38;;;;;;;5.17;100.00;101656.63;4966265;28;20026;-77
2022/12/05 03:12:59;;;;;;;66.93;33.55;;;;;;;5.26;100.00;101647.94;4991197;28;20063;-77
2022/12/05 03:15:30;;;;;;;67.28;31.50;;;;;;;5.17;100.00;101649.44;4978092;28;20021;-77
2022/12/05 03:18:24;;;;;;;74.05;34.42;;;;;;;5.02;100.00;101645.13;4995534;28;20030;-77
2022/12/05 03:20:59;;;;;;;76.10;35.65;;;;;;;5.00;100.00;101649.72;4987079;28;20045;-76
2022/12/05 03:23:31;;;;;;;78.22;34.38;;;;;;;5.09;100.00;101651.78;4977749;28;20545;-75
2022/12/05 03:26:19;;;;;;;74.60;35.08;;;;;;;5.00;100.00;101647.03;4977521;28;20112;-76
2022/12/05 03:29:02;;;;;;;79.30;36.65;;;;;;;5.28;100.00;101645.13;4973409;28;20027;-76
2022/12/05 03:31:43;;;;;;;78.75;36.15;;;;;;;5.05;100.00;101655.63;4977202;28;20476;-75
2022/12/05 03:34:15;;;;;;;83.60;37.53;;;;;;;5.04;100.00;101653.06;4994900;28;20015;-75
2022/12/05 03:36:47;;;;;;;73.38;34.95;;;;;;;5.13;100.00;101658.66;4977468;28;20033;-76
2022/12/05 03:39:28;;;;;;;71.10;33.70;;;;;;;5.00;100.00;101648.84;4975104;28;20029;-75
2022/12/05 03:42:08;;;;;;;72.07;34.78;;;;;;;5.00;100.00;101657.75;4974780;28;20037;-76
2022/12/05 03:44:56;;;;;;;79.28;37.15;;;;;;;5.03;100.00;101656.72;4979200;28;20026;-75
2022/12/05 03:47:33;;;;;;;79.25;34.47;;;;;;;5.11;100.00;101659.72;4966339;28;20031;-75
2022/12/05 03:50:04;;;;;;;81.53;35.83;;;;;;;5.08;100.00;101660.78;4977394;28;20062;-75
2022/12/05 03:52:41;;;;;;;73.90;34.87;;;;;;;4.98;100.00;101657.00;4976463;28;20051;-78
2022/12/05 03:55:09;;;;;;;72.15;35.72;;;;;;;5.01;100.00;101659.47;4994223;28;20324;-75
2022/12/05 03:57:42;;;;;;;83.57;38.65;;;;;;;5.01;100.00;101648.75;4999044;28;20112;-75
2022/12/05 04:00:19;;;;;;;77.10;36.05;;;;;;;5.03;100.00;101646.84;4975062;28;20022;-75
2022/12/05 04:03:11;;;;;;;81.28;36.00;;;;;;;5.06;100.00;101649.28;4970909;28;20027;-75
2022/12/05 04:05:45;;;;;;;;;;;;;;;4.92;100.00;101651.19;4994784;28;20066;-76
2022/12/05 04:08:26;;;;;;;80.72;33.53;;;;;;;4.90;100.00;101656.69;4976693;28;19909;-76
2022/12/05 04:10:58;;;;;;;90.95;38.45;;;;;;;4.76;100.00;101654.03;4971581;28;20049;-75
2022/12/05 04:13:34;;;;;;;91.32;37.53;;;;;;;4.80;100.00;101655.56;4979063;28;20025;-76
2022/12/05 04:19:02;;;;;;;85.28;38.35;;;;;;;4.94;100.00;101650.13;5002337;28;20054;-76
2022/12/05 04:21:37;;;;;;;91.80;39.75;;;;;;;4.88;100.00;101658.56;4976328;28;20026;-77
2022/12/05 04:26:57;;;;;;;87.28;37.20;;;;;;;4.86;100.00;101650.63;4998871;28;20476;-77
2022/12/05 04:29:30;;;;;;;98.88;39.58;;;;;;;4.82;100.00;101654.47;4968622;28;20022;-77
2022/12/05 04:32:07;;;;;;;95.07;39.00;;;;;;;4.97;100.00;101657.97;4976007;28;20033;-76
2022/12/05 04:34:35;;;;;;;95.35;38.92;;;;;;;4.83;100.00;101660.72;4993290;28;20109;-77
2022/12/05 04:37:10;;;;;;;105.43;40.22;;;;;;;4.77;100.00;101666.50;4975445;28;20112;-76
2022/12/05 04:39:53;;;;;;;96.65;39.83;;;;;;;4.94;100.00;101658.16;4969130;28;20065;-77
2022/12/05 04:42:23;;;;;;;111.15;42.03;;;;;;;4.98;100.00;101664.19;4974134;28;20077;-77
2022/12/05 04:44:52;;;;;;;104.07;41.85;;;;;;;5.12;100.00;101659.63;4975975;28;20447;-77
2022/12/05 04:50:31;;;;;;;118.88;40.53;;;;;;;4.98;100.00;101665.06;4981418;28;20023;-77
2022/12/05 04:52:59;;;;;;;120.32;44.53;;;;;;;4.89;100.00;101668.38;4963679;28;20030;-77
2022/12/05 04:55:27;;;;;;;110.45;41.50;;;;;;;4.85;100.00;101662.34;4999633;28;20022;-77
2022/12/05 04:58:23;;;;;;;127.18;45.17;;;;;;;4.88;100.00;101658.56;4969967;28;20062;-77
2022/12/05 05:01:15;;;;;;;117.25;42.17;;;;;;;4.92;100.00;101654.75;4950944;28;20034;-77
2022/12/05 05:03:57;;;;;;;106.03;40.30;;;;;;;4.88;100.00;101653.22;4977166;28;20037;-77
2022/12/05 05:06:25;;;;;;;97.03;38.70;;;;;;;5.06;100.00;101646.63;4977098;28;20173;-77
2022/12/05 05:08:53;;;;;;;109.97;38.35;;;;;;;4.88;100.00;101647.84;4963474;28;20031;-77
2022/12/05 05:11:26;;;;;;;112.38;40.25;;;;;;;4.94;100.00;101642.06;4981572;28;20026;-76
2022/12/05 05:13:52;;;;;;;117.07;40.42;;;;;;;4.85;100.00;101642.69;4977864;28;20028;-77
2022/12/05 05:16:20;;;;;;;103.65;38.30;;;;;;;4.90;100.00;101651.31;4977542;28;20034;-77
2022/12/05 05:18:47;;;;;;;112.30;37.72;;;;;;;4.95;100.00;101646.47;5003500;28;20034;-77
2022/12/05 05:21:19;;;;;;;112.97;38.42;;;;;;;4.69;100.00;101641.97;4994427;28;20029;-77
2022/12/05 05:23:44;;;;;;;111.40;39.75;;;;;;;4.65;100.00;101645.84;4969143;28;20030;-77
2022/12/05 05:26:09;;;;;;;112.50;38.95;;;;;;;4.66;100.00;101647.56;4977223;28;20154;-77
2022/12/05 05:28:35;;;;;;;114.20;42.60;;;;;;;4.63;100.00;101649.50;4977747;28;20072;-77
2022/12/05 05:31:04;;;;;;;115.72;38.63;;;;;;;4.77;100.00;101650.41;4977480;28;20053;-77
2022/12/05 05:33:30;;;;;;;112.75;40.17;;;;;;;4.76;100.00;101643.28;4977001;28;20162;-77
2022/12/05 05:35:55;;;;;;;129.38;44.78;;;;;;;4.46;100.00;101647.03;5001555;28;20093;-77
2022/12/05 05:38:23;;;;;;;124.93;43.65;;;;;;;4.50;100.00;101637.84;4986986;28;20098;-77
2022/12/05 05:40:48;;;;;;;137.13;45.78;;;;;;;4.35;100.00;101649.56;4972494;28;20057;-76
2022/12/05 05:43:13;;;;;;;139.80;45.72;;;;;;;4.54;100.00;101644.72;4977464;28;20034;-77
2022/12/05 05:45:44;;;;;;;147.93;48.03;;;;;;;4.56;100.00;101645.50;4977808;28;20031;-77
2022/12/05 05:48:09;;;;;;;142.45;45.50;;;;;;;4.41;100.00;101650.97;4995311;28;20034;-77
2022/12/05 05:50:35;;;;;;;151.43;47.35;;;;;;;4.50;100.00;101642.31;4999218;28;20046;-77
2022/12/05 05:53:01;;;;;;;159.90;51.42;;;;;;;4.46;100.00;101636.31;4981715;28;20027;-76
2022/12/05 05:55:26;;;;;;;164.65;50.25;;;;;;;4.35;100.00;101645.03;4967262;28;20052;-77
2022/12/05 05:57:51;;;;;;;165.77;49.85;;;;;;;4.41;100.00;101651.84;4972503;28;20039;-77
2022/12/05 06:00:17;;;;;;;151.65;47.78;;;;;;;4.42;100.00;101650.88;4975003;28;20034;-77
2022/12/05 06:02:42;;;;;;;173.00;49.25;;;;;;;4.32;100.00;101655.13;4976532;28;20034;-77
2022/12/05 06:05:08;;;;;;;176.93;50.55;;;;;;;4.34;100.00;101655.88;4968938;28;20023;-77
2022/12/05 06:07:33;;;;;;;181.40;49.60;;;;;;;4.45;100.00;101656.06;4975750;28;20033;-77
2022/12/05 06:09:58;;;;;;;162.80;49.45;;;;;;;4.40;100.00;101663.53;4976243;28;20029;-77
2022/12/05 06:12:24;;;;;;;184.95;52.10;;;;;;;4.26;100.00;101660.88;4975044;28;20053;-77
2022/12/05 06:14:50;;;;;;;179.18;52.97;;;;;;;4.39;100.00;101656.44;4976020;28;20030;-77
2022/12/05 06:17:15;;;;;;;171.27;52.15;;;;;;;4.35;100.00;101661.13;4970351;28;20109;-77
2022/12/05 06:19:41;;;;;;;169.02;46.50;;;;;;;4.50;100.00;101659.31;4999312;28;20022;-77
2022/12/05 06:22:06;;;;;;;195.07;51.92;;;;;;;4.58;100.00;101656.97;4975996;28;20057;-77
2022/12/05 06:24:31;;;;;;;179.55;52.88;;;;;;;4.49;100.00;101657.56;4975198;28;20015;-77
2022/12/05 06:26:57;;;;;;;211.48;59.65;;;;;;;4.36;100.00;101659.31;4975074;28;20076;-77
2022/12/05 06:29:22;;;;;;;214.55;60.28;;;;;;;4.37;100.00;101666.41;4967572;28;20030;-77
2022/12/05 06:31:47;;;;;;;207.20;55.85;;;;;;;4.33;100.00;101664.88;4968141;28;20042;-77
2022/12/05 06:34:13;;;;;;;204.20;55.55;;;;;;;4.33;100.00;101662.22;4972158;28;20019;-77
2022/12/05 06:36:38;;;;;;;216.07;54.47;;;;;;;4.38;100.00;101668.13;4975542;28;20376;-77
2022/12/05 06:39:04;;;;;;;186.73;48.30;;;;;;;4.33;100.00;101662.22;4967904;28;20389;-77
2022/12/05 06:41:29;;;;;;;207.65;55.35;;;;;;;4.43;100.00;101663.31;4973726;28;20042;-77
2022/12/05 06:43:57;;;;;;;222.10;53.80;;;;;;;4.54;100.00;101665.31;4975562;28;20040;-77
2022/12/05 06:46:24;;;;;;;224.30;53.63;;;;;;;4.35;100.00;101673.69;4976616;28;20022;-77
2022/12/05 06:48:57;;;;;;;243.30;57.47;;;;;;;4.42;100.00;101676.81;4978750;28;20022;-77
2022/12/05 06:51:23;;;;;;;243.02;59.95;;;;;;;4.22;100.00;101676.28;4977897;28;20080;-77
2022/12/05 06:53:48;;;;;;;229.07;59.20;;;;;;;4.16;100.00;101675.81;4970173;28;20018;-77
2022/12/05 06:56:16;;;;;;;243.50;60.90;;;;;;;4.19;100.00;101681.00;4978050;28;20034;-77
2022/12/05 06:58:46;;;;;;;251.82;62.08;;;;;;;4.19;100.00;101681.00;5003312;28;20043;-77
2022/12/05 07:04:03;;;;;;;234.40;57.17;;;;;;;4.09;100.00;101681.56;4996360;28;20050;-77
2022/12/05 07:06:28;;;;;;;234.90;58.97;;;;;;;4.22;100.00;101676.28;4982641;28;20022;-77
2022/12/05 07:08:54;;;;;;;226.48;59.10;;;;;;;4.19;100.00;101691.72;4977659;28;20029;-77
2022/12/05 07:11:20;;;;;;;207.77;53.97;;;;;;;4.23;100.00;101687.88;4972890;28;20050;-76
2022/12/05 07:13:45;;;;;;;182.35;49.60;;;;;;;4.15;100.00;101685.69;4999071;28;20019;-77
2022/12/05 07:16:11;;;;;;;182.70;51.28;;;;;;;4.33;100.00;101672.94;4977029;28;20026;-77
2022/12/05 07:18:36;;;;;;;171.15;48.15;;;;;;;4.18;100.00;101668.56;4977791;28;20030;-77
2022/12/05 07:21:05;;;;;;;157.18;46.90;;;;;;;4.18;100.00;101679.28;4977818;28;20434;-76
2022/12/05 07:23:31;;;;;;;153.38;47.30;;;;;;;4.36;100.00;101683.44;4976059;28;20085;-74
2022/12/05 07:25:59;;;;;;;163.57;48.90;;;;;;;4.29;100.00;101676.75;4976982;28;20064;-74
2022/12/05 07:28:24;;;;;;;147.35;46.72;;;;;;;4.01;100.00;101683.88;4994116;28;20116;-74
2022/12/05 07:31:04;;;;;;;140.55;43.92;;;;;;;4.16;100.00;101681.16;4976149;28;20054;-74
2022/12/05 07:33:30;;;;;;;135.52;43.47;;;;;;;3.80;100.00;101679.84;4976327;28;20069;-73
2022/12/05 07:36:00;;;;;;;133.63;43.95;;;;;;;3.82;100.00;101677.94;4998870;28;20021;-74
2022/12/05 07:38:25;;;;;;;129.57;43.90;;;;;;;3.92;100.00;101679.09;4953043;28;20033;-74
2022/12/05 07:40:51;;;;;;;125.03;44.25;;;;;;;3.86;100.00;101674.13;4969043;28;20031;-74
2022/12/05 07:43:16;;;;;;;131.23;41.97;;;;;;;3.78;100.00;101671.03;4970709;28;20388;-75
2022/12/05 07:45:41;;;;;;;137.40;46.40;;;;;;;3.66;100.00;101677.16;4971654;28;20038;-73
2022/12/05 07:48:07;;;;;;;124.35;40.90;;;;;;;3.67;100.00;101678.88;4959716;28;20030;-74
2022/12/05 07:50:32;;;;;;;129.82;47.28;;;;;;;3.73;100.00;101678.50;4976701;28;20037;-74
2022/12/05 07:52:58;;;;;;;124.82;41.15;;;;;;;3.74;100.00;101674.88;4980242;28;20035;-74
2022/12/05 07:55:23;;;;;;;112.88;40.10;;;;;;;3.93;100.00;101686.16;4961356;28;20045;-74
2022/12/05 07:57:48;;;;;;;122.03;42.50;;;;;;;3.77;100.00;101674.66;4964420;28;20022;-74
2022/12/05 08:00:14;;;;;;;120.43;39.45;;;;;;;3.57;100.00;101680.38;4961363;28;20033;-74
2022/12/05 08:02:40;;;;;;;120.40;41.55;;;;;;;3.52;100.00;101678.88;4954360;28;20018;-73
2022/12/05 08:05:06;;;;;;;121.90;40.50;;;;;;;3.68;100.00;101680.59;4957748;28;20062;-74
2022/12/05 08:07:31;;;;;;;134.73;40.03;;;;;;;3.62;100.00;101675.63;4960338;28;20026;-74
2022/12/05 08:09:56;;;;;;;113.15;38.03;;;;;;;3.77;100.00;101677.34;4961183;28;20022;-74
2022/12/05 08:12:22;;;;;;;124.65;39.67;;;;;;;3.53;100.00;101683.28;4957482;28;20023;-73
2022/12/05 08:14:47;;;;;;;133.32;42.33;;;;;;;3.67;100.00;101678.88;4959434;28;20049;-74
2022/12/05 08:17:12;;;;;;;135.38;40.53;;;;;;;3.58;100.00;101679.44;4963086;28;20051;-74
2022/12/05 08:19:38;;;;;;;127.35;41.60;;;;;;;3.73;100.00;101683.88;4966282;28;20039;-73
2022/12/05 08:22:03;;;;;;;126.65;43.38;;;;;;;3.54;100.00;101684.13;4951773;28;20027;-74
2022/12/05 08:24:29;;;;;;;130.73;40.30;;;;;;;3.59;100.00;101691.88;4967417;28;20379;-73
2022/12/05 08:26:54;;;;;;;127.75;39.20;;;;;;;3.76;100.00;101681.00;4963361;28;20027;-74
2022/12/05 08:29:20;;;;;;;122.47;39.83;;;;;;;3.70;100.00;101678.69;4959723;28;20054;-73
2022/12/05 08:31:48;;;;;;;122.25;37.58;;;;;;;3.66;100.00;101687.88;4953513;28;20038;-73
2022/12/05 08:34:14;;;;;;;119.00;41.20;;;;;;;3.85;100.00;101690.25;4964594;28;20475;-74
2022/12/05 08:36:40;;;;;;;126.65;42.70;;;;;;;4.09;100.00;101703.00;4966451;28;20052;-74
2022/12/05 08:39:08;;;;;;;130.02;40.05;;;;;;;3.97;100.00;101703.75;4957640;28;20027;-74
2022/12/05 08:41:34;;;;;;;133.68;41.42;;;;;;;3.98;100.00;101694.78;4968051;28;20201;-74
2022/12/05 08:44:01;;;;;;;123.28;39.13;;;;;;;4.23;100.00;101710.16;4974112;28;20096;-73
2022/12/05 08:46:28;;;;;;;139.65;42.45;;;;;;;3.95;100.00;101705.69;4968643;28;20030;-73
2022/12/05 08:48:53;;;;;;;147.55;44.30;;;;;;;3.79;100.00;101712.97;4976000;28;20030;-73
2022/12/05 08:51:19;;;;;;;146.23;44.38;;;;;;;3.85;100.00;101709.91;4968502;28;20018;-74
2022/12/05 08:53:44;;;;;;;139.38;43.30;;;;;;;3.82;100.00;101715.44;4962185;28;20022;-74
2022/12/05 08:56:10;;;;;;;146.23;43.75;;;;;;;3.86;100.00;101716.97;4995196;28;20030;-72
2022/12/05 08:58:36;;;;;;;145.20;43.70;;;;;;;3.76;100.00;101710.44;4969279;28;20145;-73
2022/12/05 09:01:06;;;;;;;148.38;43.50;;;;;;;3.96;100.00;101723.47;4977411;28;20085;-73
2022/12/05 09:03:31;;;;;;;152.32;47.97;;;;;;;4.03;100.00;101715.91;4969966;28;20033;-73
2022/12/05 09:06:23;;;;;;;153.57;44.33;;;;;;;3.77;100.00;101722.88;4957339;28;20145;-74
2022/12/05 09:08:53;;;;;;;170.82;45.50;;;;;;;3.57;100.00;101723.22;4949220;28;20544;-74
2022/12/05 09:11:22;;;;;;;158.13;44.63;;;;;;;3.61;100.00;101722.09;4951796;28;20057;-74
2022/12/05 09:13:49;;;;;;;141.77;42.95;;;;;;;3.61;100.00;101716.75;4964858;28;20019;-74
2022/12/05 09:16:24;;;;;;;170.07;42.97;;;;;;;3.69;100.00;101719.81;4955346;28;20053;-73
2022/12/05 09:18:50;;;;;;;164.88;44.30;;;;;;;3.77;100.00;101722.88;4961807;28;20029;-73
2022/12/05 09:21:22;;;;;;;154.07;46.65;;;;;;;3.70;100.00;101717.03;4960662;28;20026;-75
2022/12/05 09:23:48;;;;;;;158.45;43.38;;;;;;;3.54;100.00;101717.13;4966253;28;20015;-74
2022/12/05 09:26:15;;;;;;;154.30;45.03;;;;;;;3.47;100.00;101715.75;4984321;28;20125;-73
2022/12/05 09:28:41;;;;;;;153.95;43.28;;;;;;;3.57;100.00;101715.19;4967084;28;20034;-74
2022/12/05 09:31:18;;;;;;;160.98;45.13;;;;;;;3.63;100.00;101718.38;4956189;28;20026;-74
2022/12/05 09:33:47;;;;;;;148.52;42.67;;;;;;;3.92;100.00;101716.59;4956503;28;20030;-74
2022/12/05 09:36:25;;;;;;;169.32;45.25;;;;;;;3.74;100.00;101717.72;4955678;28;20019;-74
2022/12/05 09:38:51;;;;;;;146.73;42.25;;;;;;;3.64;100.00;101717.41;4963078;28;20026;-74
2022/12/05 09:42:03;;;;;;;162.50;42.13;;;;;;;3.32;100.00;101719.34;4964023;28;20034;-73
2022/12/05 09:44:24;;;;;;;138.93;40.70;;;;;;;3.46;100.00;101714.03;4981055;28;20033;-74
2022/12/05 09:46:55;;;;;;;140.60;38.08;;;;;;;3.40;100.00;101713.56;4958883;28;20105;-74
2022/12/05 09:49:23;;;;;;;160.43;43.77;;;;;;;3.46;100.00;101714.03;4986005;28;20119;-73
2022/12/05 09:51:50;;;;;;;166.75;43.35;;;;;;;3.59;100.00;101710.63;4959058;28;20122;-73
2022/12/05 09:54:16;;;;;;;150.65;41.08;;;;;;;3.84;100.00;101713.50;4960006;28;20053;-73
2022/12/05 09:56:43;;;;;;;174.00;44.60;;;;;;;3.70;100.00;101716.19;4978534;28;20400;-72
2022/12/05 09:59:19;;;;;;;170.02;42.03;;;;;;;3.51;100.00;101706.56;4960312;28;20049;-72
2022/12/05 10:01:50;;;;;;;148.02;41.10;;;;;;;3.49;100.00;101703.13;4967041;28;21227;-72
2022/12/05 10:04:33;;;;;;;147.30;40.33;;;;;;;3.60;100.00;101698.97;4959826;28;20038;-71
2022/12/05 10:07:14;;;;;;;154.10;40.75;;;;;;;3.68;100.00;101707.38;4957563;28;20053;-72
2022/12/05 10:09:46;;;;;;;151.20;41.65;;;;;;;3.74;100.00;101701.66;4971920;28;20098;-71
2022/12/05 10:12:42;;;;;;;131.85;38.15;;;;;;;3.75;100.00;101698.88;4983577;28;20023;-71
2022/12/05 10:15:28;;;;;;;127.35;39.45;;;;;;;3.80;100.00;101706.63;4976167;28;20033;-72
2022/12/05 10:18:13;;;;;;;128.50;38.25;;;;;;;3.83;100.00;101698.41;4979050;28;20054;-72
2022/12/05 10:20:56;;;;;;;144.65;40.80;;;;;;;3.62;100.00;101702.41;4969556;28;20033;-73
2022/12/05 10:23:27;;;;;;;128.77;40.53;;;;;;;3.69;100.00;101703.75;4974538;28;20041;-72
2022/12/05 10:25:58;;;;;;;120.97;41.35;;;;;;;3.91;100.00;101703.28;4967520;28;20157;-72
2022/12/05 10:28:51;;;;;;;124.70;40.35;;;;;;;3.95;100.00;101699.47;4968704;28;20100;-72
2022/12/05 10:31:24;;;;;;;135.63;42.17;;;;;;;4.01;100.00;101702.63;4958744;28;20082;-73
2022/12/05 10:34:00;;;;;;;125.97;40.45;;;;;;;4.06;100.00;101692.47;4990117;28;20030;-72
2022/12/05 10:36:25;;;;;;;122.25;38.53;;;;;;;4.13;100.00;101692.09;4964621;28;20026;-72
2022/12/05 10:38:51;;;;;;;138.32;41.60;;;;;;;3.89;100.00;101692.66;4971055;28;20077;-73
2022/12/05 10:41:17;;;;;;;130.10;38.50;;;;;;;3.85;100.00;101699.19;4980842;28;20138;-72
2022/12/05 10:43:44;;;;;;;103.35;37.53;;;;;;;3.85;100.00;101693.84;4963109;28;20042;-72
2022/12/05 10:46:12;;;;;;;109.47;36.75;;;;;;;3.87;100.00;101686.56;4960517;28;20031;-72
2022/12/05 10:48:40;;;;;;;126.60;37.92;;;;;;;3.77;100.00;101682.69;4967482;28;20027;-73
2022/12/05 10:51:13;;;;;;;115.63;39.58;;;;;;;3.77;100.00;101680.03;4966421;28;20037;-72
2022/12/05 10:53:48;;;;;;;109.93;36.90;;;;;;;3.94;100.00;101687.88;4965985;28;20033;-72
2022/12/05 10:56:41;;;;;;;109.95;37.70;;;;;;;3.84;100.00;101676.00;4972117;28;20038;-73
2022/12/05 10:59:11;;;;;;;121.20;38.50;;;;;;;3.67;100.00;101678.88;4968582;28;20037;-72
2022/12/05 11:01:42;;;;;;;118.00;38.70;;;;;;;3.75;100.00;101673.91;4968387;28;20129;-72
2022/12/05 11:04:18;;;;;;;125.70;37.13;;;;;;;3.88;100.00;101672.19;4962899;28;20039;-73
2022/12/05 11:06:57;;;;;;;99.05;35.53;;;;;;;4.00;100.00;101676.78;4969585;28;20087;-72
2022/12/05 11:09:29;;;;;;;116.03;39.08;;;;;;;4.02;100.00;101669.50;4968274;28;20073;-73
2022/12/05 11:12:00;;;;;;;;;;;;;;;4.17;100.00;101661.44;4970982;28;20025;-72
2022/12/05 11:14:27;;;;;;;94.55;33.30;;;;;;;4.28;100.00;101669.69;4981216;28;19949;-72
2022/12/05 11:16:55;;;;;;;98.10;33.78;;;;;;;4.37;100.00;101669.09;4984051;28;20062;-73
2022/12/05 11:19:20;;;;;;;88.40;34.35;;;;;;;4.32;100.00;101660.50;4985539;28;20026;-72
2022/12/05 11:21:46;;;;;;;97.75;33.47;;;;;;;4.09;100.00;101676.19;4983609;28;20058;-71
2022/12/05 11:24:26;;;;;;;100.35;37.10;;;;;;;4.30;100.00;101662.38;4968811;28;20021;-72
2022/12/05 11:26:52;;;;;;;100.45;34.28;;;;;;;4.38;100.00;101654.72;4968863;28;20022;-72
2022/12/05 11:29:27;;;;;;;94.95;33.90;;;;;;;4.25;100.00;101653.81;4970466;28;20523;-72
2022/12/05 11:31:53;;;;;;;89.10;32.35;;;;;;;4.09;100.00;101661.94;4977013;28;20018;-72